Time;durP1;ratioP1;P1;durP2;ratioP2;P2;SDS_P1;SDS_P2;PMS_P1;PMS_P2;Temp;Humidity;BMP_temperature;BMP_pressure;BME280_temperature;BME280_humidity;BME280_pressure;Samples;Min_cycle;Max_cycle;Signal;HPM_P1;HPM_P2
2023/07/13 00:00:47;;;;;;;0.50;0.20;;;;;;;18.11;73.04;100175.41;5050864;28;20822;-51
2023/07/13 00:03:14;;;;;;;0.50;0.20;;;;;;;18.00;73.93;100176.06;5052715;28;20881;-51
2023/07/13 00:05:41;;;;;;;0.50;0.20;;;;;;;18.18;73.70;100171.34;5052489;28;20467;-51
2023/07/13 00:08:08;;;;;;;0.50;0.20;;;;;;;18.22;73.13;100166.63;5052483;28;20593;-51
2023/07/13 00:10:40;;;;;;;0.50;0.20;;;;;;;18.32;72.14;100159.72;5034494;28;21018;-51
2023/07/13 00:13:08;;;;;;;0.50;0.20;;;;;;;18.43;71.86;100159.94;5051358;28;20490;-51
2023/07/13 00:15:35;;;;;;;0.50;0.20;;;;;;;18.66;70.27;100168.41;5051853;28;20523;-52
2023/07/13 00:18:02;;;;;;;0.50;0.20;;;;;;;18.55;70.47;100164.53;5051528;28;21027;-52
2023/07/13 00:20:29;;;;;;;0.50;0.20;;;;;;;18.69;69.94;100170.91;5052015;28;20477;-50
2023/07/13 00:22:55;;;;;;;0.50;0.20;;;;;;;18.83;69.73;100166.34;5044141;28;20471;-49
2023/07/13 00:25:28;;;;;;;0.50;0.20;;;;;;;19.14;68.50;100167.03;5051995;28;20521;-50
2023/07/13 00:27:55;;;;;;;0.50;0.20;;;;;;;19.35;66.69;100164.75;5052583;28;20479;-50
2023/07/13 00:30:22;;;;;;;0.50;0.20;;;;;;;19.16;67.47;100174.06;5051965;28;20501;-50
2023/07/13 00:32:48;;;;;;;0.50;0.20;;;;;;;18.92;69.41;100171.16;5051840;28;21021;-49
2023/07/13 00:35:15;;;;;;;0.50;0.20;;;;;;;18.68;70.65;100182.63;5051876;28;20462;-50
2023/07/13 00:37:42;;;;;;;0.50;0.20;;;;;;;18.47;71.04;100182.13;5051929;28;20522;-50
2023/07/13 00:40:12;;;;;;;0.50;0.20;;;;;;;18.46;71.42;100191.16;5051861;28;20549;-50
2023/07/13 00:42:39;;;;;;;0.50;0.20;;;;;;;18.13;72.24;100199.50;5051671;28;20462;-50
2023/07/13 00:45:11;;;;;;;0.50;0.20;;;;;;;17.64;75.35;100197.03;5034295;28;20557;-50
2023/07/13 00:47:39;;;;;;;0.50;0.20;;;;;;;17.70;75.30;100202.09;5051949;28;20917;-50
2023/07/13 00:50:09;;;;;;;0.50;0.20;;;;;;;17.32;77.37;100207.00;5051739;28;20498;-50
2023/07/13 00:52:40;;;;;;;0.50;0.20;;;;;;;17.35;77.50;100202.31;5051713;28;20997;-50
2023/07/13 00:55:09;;;;;;;0.50;0.20;;;;;;;17.27;78.33;100215.34;5051859;28;20454;-50
2023/07/13 00:57:36;;;;;;;0.50;0.20;;;;;;;17.05;79.56;100210.31;5051608;28;20544;-50
2023/07/13 01:00:08;;;;;;;0.50;0.20;;;;;;;16.78;81.03;100210.03;5051836;28;20489;-50
2023/07/13 01:02:41;;;;;;;0.50;0.20;;;;;;;16.83;80.66;100207.94;5051681;28;20498;-50
2023/07/13 01:05:13;;;;;;;0.50;0.20;;;;;;;16.84;81.35;100201.63;5052227;28;20465;-50
2023/07/13 01:07:42;;;;;;;0.50;0.20;;;;;;;16.87;81.04;100208.66;5051460;28;20474;-50
2023/07/13 01:10:08;;;;;;;0.50;0.20;;;;;;;17.06;80.75;100206.66;5051732;28;20966;-49
2023/07/13 01:12:34;;;;;;;0.50;0.20;;;;;;;17.11;80.46;100211.75;5051717;28;20491;-49
2023/07/13 01:15:02;;;;;;;0.50;0.20;;;;;;;17.02;81.15;100206.94;5051811;28;20475;-50
2023/07/13 01:17:29;;;;;;;0.50;0.20;;;;;;;17.10;81.07;100197.47;5051561;28;21025;-50
2023/07/13 01:19:55;;;;;;;0.50;0.20;;;;;;;17.15;81.11;100199.91;5051780;28;20525;-50
2023/07/13 01:22:25;;;;;;;0.50;0.20;;;;;;;17.03;82.52;100205.97;5051580;28;20466;-50
2023/07/13 01:24:53;;;;;;;0.50;0.20;;;;;;;17.06;81.97;100205.78;5051341;28;20466;-50
2023/07/13 01:27:25;;;;;;;0.50;0.20;;;;;;;17.08;83.09;100210.13;5034010;28;20514;-50
2023/07/13 01:30:01;;;;;;;0.50;0.20;;;;;;;16.84;83.76;100211.50;5051562;28;20499;-49
2023/07/13 01:32:28;;;;;;;0.50;0.20;;;;;;;16.97;83.33;100206.31;5051858;28;20462;-50
2023/07/13 01:34:55;;;;;;;0.50;0.20;;;;;;;16.79;84.06;100214.44;5053409;28;20562;-50
2023/07/13 01:37:25;;;;;;;0.50;0.20;;;;;;;16.75;84.91;100206.66;5055718;28;20565;-49
2023/07/13 01:39:52;;;;;;;0.50;0.20;;;;;;;16.56;85.57;100209.44;5055631;28;20458;-49
2023/07/13 01:42:19;;;;;;;0.50;0.20;;;;;;;16.59;85.37;100212.84;5056182;28;20967;-50
2023/07/13 01:44:45;;;;;;;0.50;0.20;;;;;;;16.04;86.37;100206.88;5055476;28;20553;-49
2023/07/13 01:47:12;;;;;;;0.50;0.20;;;;;;;15.63;88.46;100212.56;5055224;28;20510;-49
2023/07/13 01:49:38;;;;;;;0.50;0.20;;;;;;;15.95;87.77;100215.38;5055397;28;20496;-49
2023/07/13 01:52:05;;;;;;;0.50;0.20;;;;;;;15.80;88.62;100210.81;5055440;28;20474;-49
2023/07/13 01:54:33;;;;;;;0.50;0.20;;;;;;;15.55;88.86;100195.94;5054988;28;21012;-50
2023/07/13 01:57:00;;;;;;;0.50;0.20;;;;;;;15.98;87.33;100204.50;5055038;28;20482;-50
2023/07/13 01:59:26;;;;;;;0.50;0.20;;;;;;;16.23;86.81;100215.66;5055140;28;20469;-50
2023/07/13 02:01:53;;;;;;;0.50;0.20;;;;;;;16.30;86.58;100217.06;5055309;28;20883;-49
2023/07/13 02:04:20;;;;;;;0.50;0.20;;;;;;;16.23;86.40;100217.50;5055203;28;20459;-50
2023/07/13 02:06:46;;;;;;;0.50;0.20;;;;;;;16.05;87.08;100213.09;5054683;28;20497;-49
2023/07/13 02:09:12;;;;;;;0.50;0.20;;;;;;;15.83;87.47;100216.03;5054805;28;20549;-49
2023/07/13 02:11:39;;;;;;;0.50;0.20;;;;;;;15.49;88.68;100225.75;5054594;28;20474;-50
2023/07/13 02:14:05;;;;;;;0.50;0.20;;;;;;;15.62;89.50;100223.31;5054844;28;20946;-50
2023/07/13 02:16:32;;;;;;;0.50;0.20;;;;;;;15.27;89.40;100225.06;5054634;28;20518;-50
2023/07/13 02:19:00;;;;;;;0.50;0.20;;;;;;;15.35;89.69;100217.50;5054788;28;20463;-49
2023/07/13 02:21:26;;;;;;;0.50;0.20;;;;;;;15.24;89.93;100226.09;5054821;28;20532;-49
2023/07/13 02:23:54;;;;;;;0.50;0.20;;;;;;;15.15;90.30;100221.16;5054562;28;20550;-50
2023/07/13 02:26:21;;;;;;;0.50;0.30;;;;;;;15.35;89.48;100221.06;5054389;28;20501;-49
2023/07/13 02:28:47;;;;;;;0.50;0.20;;;;;;;15.25;89.53;100219.78;5054347;28;20518;-49
2023/07/13 02:31:16;;;;;;;0.50;0.20;;;;;;;15.29;89.48;100217.81;5054444;28;20495;-50
2023/07/13 02:33:43;;;;;;;0.50;0.20;;;;;;;15.40;89.42;100219.03;5053701;28;20463;-50
2023/07/13 02:36:11;;;;;;;0.50;0.20;;;;;;;15.03;90.43;100219.94;5036484;28;20469;-50
2023/07/13 02:38:38;;;;;;;0.50;0.20;;;;;;;14.83;91.63;100217.34;5066159;23;20564;-51
2023/07/13 02:41:07;;;;;;;0.50;0.20;;;;;;;15.27;90.34;100225.06;5053775;28;20557;-52
2023/07/13 02:43:33;;;;;;;0.50;0.20;;;;;;;15.31;89.95;100227.50;5053819;28;20998;-51
2023/07/13 02:46:06;;;;;;;0.50;0.20;;;;;;;15.29;90.00;100231.19;5054262;28;20474;-52
2023/07/13 02:48:34;;;;;;;0.50;0.20;;;;;;;15.50;88.95;100229.28;5068119;28;21043;-52
2023/07/13 02:51:01;;;;;;;0.50;0.20;;;;;;;15.61;88.59;100227.81;5073707;28;21077;-51
2023/07/13 02:53:27;;;;;;;0.50;0.20;;;;;;;15.70;87.91;100232.72;5073985;28;20544;-52
2023/07/13 02:55:54;;;;;;;0.50;0.20;;;;;;;15.41;88.74;100233.28;5073621;28;20572;-52
2023/07/13 02:58:20;;;;;;;0.50;0.20;;;;;;;15.17;89.74;100231.78;5073644;28;20568;-51
2023/07/13 03:00:48;;;;;;;0.50;0.20;;;;;;;14.96;90.64;100228.34;5073569;28;20493;-51
2023/07/13 03:03:14;;;;;;;0.50;0.20;;;;;;;14.90;90.77;100224.13;5073590;28;20492;-51
2023/07/13 03:05:44;;;;;;;0.50;0.20;;;;;;;14.91;91.31;100233.03;5073482;28;21029;-51
2023/07/13 03:08:12;;;;;;;0.50;0.20;;;;;;;14.89;90.74;100225.09;5073462;28;20486;-52
2023/07/13 03:10:39;;;;;;;0.50;0.20;;;;;;;14.85;90.90;100228.00;5073160;28;20595;-52
2023/07/13 03:13:06;;;;;;;0.50;0.20;;;;;;;14.67;91.39;100227.91;5073700;28;20462;-52
2023/07/13 03:15:33;;;;;;;0.50;0.20;;;;;;;14.81;90.75;100228.13;5073281;28;20553;-52
2023/07/13 03:17:59;;;;;;;0.50;0.20;;;;;;;14.94;90.28;100231.09;5073211;28;20489;-52
2023/07/13 03:20:26;;;;;;;0.50;0.20;;;;;;;14.79;90.85;100232.66;5073231;28;20470;-51
2023/07/13 03:22:52;;;;;;;0.50;0.20;;;;;;;14.53;91.02;100233.03;5072974;28;20502;-51
2023/07/13 03:25:19;;;;;;;0.50;0.20;;;;;;;14.74;91.17;100244.53;5073397;28;20470;-52
2023/07/13 03:27:45;;;;;;;0.50;0.20;;;;;;;14.79;90.88;100246.03;5073175;28;20602;-51
2023/07/13 03:30:12;;;;;;;0.50;0.20;;;;;;;14.46;92.26;100245.81;5073227;28;20573;-52
2023/07/13 03:32:38;;;;;;;0.50;0.20;;;;;;;14.48;92.45;100245.72;5072201;28;20548;-51
2023/07/13 03:35:05;;;;;;;0.50;0.20;;;;;;;14.48;92.26;100241.25;5067935;28;20498;-51
2023/07/13 03:37:32;;;;;;;0.50;0.20;;;;;;;14.47;92.31;100250.22;5072536;28;20486;-51
2023/07/13 03:39:58;;;;;;;0.50;0.20;;;;;;;14.67;91.30;100260.03;5072817;28;20544;-51
2023/07/13 03:42:25;;;;;;;0.50;0.20;;;;;;;14.68;91.65;100258.22;5072976;28;20466;-51
2023/07/13 03:44:52;;;;;;;0.50;0.20;;;;;;;14.68;91.22;100269.78;5072644;28;20465;-51
2023/07/13 03:47:19;;;;;;;0.50;0.20;;;;;;;14.57;91.48;100282.78;5072880;28;20486;-51
2023/07/13 03:49:46;;;;;;;0.50;0.20;;;;;;;14.66;91.55;100276.97;5072404;28;20998;-51
2023/07/13 03:52:12;;;;;;;0.47;0.20;;;;;;;14.61;92.05;100275.47;5072499;28;20454;-52
2023/07/13 03:54:39;;;;;;;0.50;0.20;;;;;;;14.61;91.72;100267.44;5072031;28;20493;-51
2023/07/13 03:57:06;;;;;;;0.50;0.20;;;;;;;14.61;92.50;100267.44;5072536;28;20517;-52
2023/07/13 03:59:33;;;;;;;0.40;0.20;;;;;;;14.82;91.72;100277.19;5072408;28;20465;-51
2023/07/13 04:02:01;;;;;;;0.50;0.20;;;;;;;15.15;91.05;100280.06;5072552;28;20473;-52
2023/07/13 04:04:27;;;;;;;0.50;0.20;;;;;;;15.14;91.01;100285.50;5072401;28;20473;-52
2023/07/13 04:06:54;;;;;;;0.40;0.20;;;;;;;15.19;91.21;100280.78;5072330;28;20500;-52
2023/07/13 04:09:21;;;;;;;0.50;0.20;;;;;;;15.08;91.51;100287.53;5072638;28;20494;-52
2023/07/13 04:11:47;;;;;;;0.47;0.20;;;;;;;14.91;92.32;100279.41;5072221;28;20607;-51
2023/07/13 04:14:14;;;;;;;0.50;0.20;;;;;;;15.02;92.65;100281.59;5072446;28;20465;-51
2023/07/13 04:16:40;;;;;;;0.50;0.20;;;;;;;15.06;92.77;100273.31;5072158;28;20479;-51
2023/07/13 04:19:07;;;;;;;0.50;0.20;;;;;;;15.29;92.38;100269.56;5072165;28;20465;-51
2023/07/13 04:21:34;;;;;;;0.50;0.20;;;;;;;15.51;92.28;100281.94;5071375;28;20560;-51
2023/07/13 04:24:00;;;;;;;0.50;0.20;;;;;;;15.57;92.08;100281.59;5070489;28;21034;-52
2023/07/13 04:26:27;;;;;;;0.43;0.20;;;;;;;15.21;94.30;100277.09;5072389;28;20505;-51
2023/07/13 04:28:53;;;;;;;0.40;0.20;;;;;;;15.67;94.71;100285.63;5072001;28;20481;-51
2023/07/13 04:31:20;;;;;;;1.10;1.00;;;;;;;15.95;93.33;100279.72;5072078;28;20535;-51
2023/07/13 04:33:47;;;;;;;0.50;0.20;;;;;;;16.17;92.85;100279.47;5071506;28;20457;-52
2023/07/13 04:36:15;;;;;;;0.50;0.20;;;;;;;16.41;90.83;100288.06;5072046;28;20886;-52
2023/07/13 04:38:42;;;;;;;0.50;0.20;;;;;;;16.67;89.33;100282.22;5071559;28;20512;-52
2023/07/13 04:41:09;;;;;;;0.50;0.20;;;;;;;16.93;88.03;100269.19;5072074;28;20545;-52
2023/07/13 04:43:36;;;;;;;0.40;0.20;;;;;;;16.94;89.10;100282.53;5071883;28;20497;-51
2023/07/13 04:46:07;;;;;;;0.50;0.20;;;;;;;17.04;89.22;100272.16;5071964;28;20824;-52
2023/07/13 04:48:35;;;;;;;0.50;0.20;;;;;;;17.30;87.81;100271.56;5068946;28;20485;-52
2023/07/13 04:51:01;;;;;;;0.50;0.20;;;;;;;17.65;84.68;100279.41;5072091;28;20572;-52
2023/07/13 04:53:29;;;;;;;0.50;0.20;;;;;;;18.14;84.32;100282.81;5071857;28;20473;-52
2023/07/13 04:55:55;;;;;;;0.50;0.20;;;;;;;18.75;82.78;100286.31;5066441;28;20559;-52
2023/07/13 04:58:22;;;;;;;0.50;0.20;;;;;;;19.14;80.84;100289.16;5071940;28;20587;-52
2023/07/13 05:00:49;;;;;;;0.50;0.20;;;;;;;19.22;80.40;100280.59;5071857;28;24520;-51
2023/07/13 05:03:15;;;;;;;0.50;0.20;;;;;;;19.38;79.53;100285.88;5071673;28;20465;-52
2023/07/13 05:05:42;;;;;;;0.50;0.20;;;;;;;19.90;76.35;100290.56;5074629;28;20493;-52
2023/07/13 05:08:08;;;;;;;0.50;0.20;;;;;;;20.46;73.30;100293.94;5075738;28;20583;-52
2023/07/13 05:10:35;;;;;;;0.50;0.30;;;;;;;20.49;71.00;100296.41;5075456;28;20503;-52
2023/07/13 05:13:02;;;;;;;0.50;0.20;;;;;;;20.64;71.32;100293.50;5075928;28;20469;-52
2023/07/13 05:15:29;;;;;;;0.50;0.20;;;;;;;21.00;69.25;100300.84;5075535;28;20470;-52
2023/07/13 05:17:56;;;;;;;0.50;0.20;;;;;;;21.17;68.05;100302.34;5075912;28;20517;-52
2023/07/13 05:20:22;;;;;;;0.50;0.20;;;;;;;21.56;65.45;100295.88;5075687;28;20508;-52
2023/07/13 05:22:50;;;;;;;0.50;0.30;;;;;;;21.47;65.51;100304.66;5075619;28;23366;-52
2023/07/13 05:25:17;;;;;;;0.50;0.20;;;;;;;21.96;63.16;100300.16;5075537;28;20531;-52
2023/07/13 05:27:45;;;;;;;0.50;0.20;;;;;;;22.16;61.96;100305.78;5075434;28;20513;-52
2023/07/13 05:30:13;;;;;;;0.50;0.20;;;;;;;22.03;61.25;100301.41;5075304;28;20500;-52
2023/07/13 05:32:40;;;;;;;0.50;0.20;;;;;;;22.25;60.76;100312.38;5075307;28;20538;-52
2023/07/13 05:35:07;;;;;;;0.50;0.27;;;;;;;22.08;60.45;100307.38;5075400;28;20470;-52
2023/07/13 05:37:34;;;;;;;0.50;0.20;;;;;;;22.52;58.66;100309.38;5075002;28;20584;-52
2023/07/13 05:40:01;;;;;;;0.50;0.20;;;;;;;22.04;60.31;100308.53;5075120;28;21022;-52
2023/07/13 05:42:28;;;;;;;0.50;0.30;;;;;;;22.67;58.77;100315.44;5075270;28;20465;-52
2023/07/13 05:44:55;;;;;;;0.50;0.20;;;;;;;22.64;58.91;100316.53;5072144;28;20469;-52
2023/07/13 05:47:22;;;;;;;0.50;0.20;;;;;;;22.75;59.78;100316.56;5075191;28;20482;-52
2023/07/13 05:49:48;;;;;;;0.50;0.20;;;;;;;22.82;58.52;100316.06;5074780;28;20992;-52
2023/07/13 05:52:15;;;;;;;0.50;0.20;;;;;;;22.88;58.87;100316.47;5075040;28;21013;-52
2023/07/13 05:54:41;;;;;;;0.50;0.30;;;;;;;23.11;57.73;100313.78;5074820;28;20933;-52
2023/07/13 05:57:08;;;;;;;0.50;0.30;;;;;;;23.13;58.71;100309.09;5075102;28;20982;-52
2023/07/13 05:59:35;;;;;;;0.50;0.20;;;;;;;23.18;58.03;100317.75;5074826;28;20892;-52
2023/07/13 06:02:02;;;;;;;0.50;0.30;;;;;;;23.57;55.40;100317.25;5075143;28;20548;-52
2023/07/13 06:04:28;;;;;;;0.50;0.30;;;;;;;24.10;52.63;100321.88;5075077;28;20493;-52
2023/07/13 06:06:55;;;;;;;0.50;0.20;;;;;;;23.59;53.22;100317.97;5066926;28;20900;-52
2023/07/13 06:09:21;;;;;;;0.50;0.30;;;;;;;23.68;54.59;100323.63;5074779;28;20556;-52
2023/07/13 06:11:48;;;;;;;0.50;0.30;;;;;;;23.49;55.82;100321.53;5074334;28;20524;-52
2023/07/13 06:14:14;;;;;;;0.50;0.20;;;;;;;23.94;53.02;100323.16;5074931;28;20491;-52
2023/07/13 06:16:41;;;;;;;0.50;0.30;;;;;;;24.06;54.11;100315.84;5073964;28;20899;-52
2023/07/13 06:19:08;;;;;;;0.50;0.23;;;;;;;23.90;53.16;100320.84;5074778;28;20471;-52
2023/07/13 06:21:34;;;;;;;0.50;0.27;;;;;;;24.46;51.15;100328.78;5074597;28;20458;-52
2023/07/13 06:24:01;;;;;;;0.50;0.20;;;;;;;24.26;50.52;100322.31;5074582;28;20515;-52
2023/07/13 06:26:28;;;;;;;0.50;0.27;;;;;;;24.55;49.08;100324.44;5074343;28;20929;-52
2023/07/13 06:28:54;;;;;;;0.50;0.20;;;;;;;24.49;47.96;100329.38;5073138;28;20470;-52
2023/07/13 06:31:21;;;;;;;0.50;0.20;;;;;;;24.25;49.01;100331.44;5074501;28;20596;-52
2023/07/13 06:33:47;;;;;;;0.50;0.27;;;;;;;24.57;48.19;100331.47;5073771;28;20472;-52
2023/07/13 06:36:14;;;;;;;0.50;0.30;;;;;;;24.81;47.57;100331.19;5074390;28;20501;-52
2023/07/13 06:38:40;;;;;;;0.50;0.20;;;;;;;24.79;47.08;100330.44;5073912;28;20501;-52
2023/07/13 06:41:08;;;;;;;0.50;0.30;;;;;;;24.90;46.25;100334.94;5074247;28;20966;-52
2023/07/13 06:43:35;;;;;;;0.50;0.30;;;;;;;24.69;46.22;100332.25;5073981;28;20472;-52
2023/07/13 06:46:01;;;;;;;0.50;0.20;;;;;;;24.48;47.64;100330.38;5074043;28;20501;-52
2023/07/13 06:48:28;;;;;;;0.50;0.20;;;;;;;24.42;47.31;100330.91;5074131;28;20510;-52
2023/07/13 06:50:55;;;;;;;0.50;0.20;;;;;;;24.83;46.86;100331.91;5067266;28;20535;-52
2023/07/13 06:53:22;;;;;;;0.50;0.30;;;;;;;24.83;46.96;100331.06;5069688;28;20470;-52
2023/07/13 06:55:49;;;;;;;0.50;0.20;;;;;;;25.08;46.75;100338.78;5074189;28;20593;-52
2023/07/13 06:58:18;;;;;;;0.50;0.20;;;;;;;24.98;46.74;100340.59;5074262;28;20492;-52
2023/07/13 07:00:45;;;;;;;0.50;0.30;;;;;;;24.66;47.76;100338.78;5073858;28;20545;-52
2023/07/13 07:03:11;;;;;;;0.50;0.30;;;;;;;24.74;47.44;100340.88;5073901;28;20500;-52
2023/07/13 07:05:38;;;;;;;0.50;0.30;;;;;;;25.27;46.30;100336.19;5073756;28;20561;-52
2023/07/13 07:08:05;;;;;;;0.50;0.20;;;;;;;25.10;46.19;100343.13;5073572;28;20572;-52
2023/07/13 07:10:31;;;;;;;0.50;0.23;;;;;;;25.36;46.31;100339.94;5073715;28;20469;-52
2023/07/13 07:12:58;;;;;;;0.50;0.30;;;;;;;25.37;46.25;100339.81;5073623;28;20951;-52
2023/07/13 07:15:25;;;;;;;0.50;0.30;;;;;;;24.99;46.49;100343.16;5073791;28;20517;-52
2023/07/13 07:17:52;;;;;;;0.50;0.30;;;;;;;24.92;46.62;100341.97;5073433;28;20576;-52
2023/07/13 07:20:20;;;;;;;0.50;0.30;;;;;;;25.11;44.85;100341.25;5073425;28;20436;-51
2023/07/13 07:22:47;;;;;;;0.50;0.23;;;;;;;25.48;44.70;100346.97;5073307;28;20470;-52
2023/07/13 07:25:13;;;;;;;0.50;0.27;;;;;;;25.45;45.57;100349.13;5073316;28;20868;-52
2023/07/13 07:27:40;;;;;;;0.50;0.30;;;;;;;25.51;45.43;100349.44;5072200;28;20963;-52
2023/07/13 07:30:09;;;;;;;0.50;0.30;;;;;;;25.52;45.42;100351.19;5072902;28;20564;-52
2023/07/13 07:32:39;;;;;;;0.50;0.30;;;;;;;25.35;44.90;100357.25;5072837;28;20573;-52
2023/07/13 07:35:22;;;;;;;0.50;0.30;;;;;;;25.16;45.10;100359.88;5072271;28;20480;-51
2023/07/13 07:37:48;;;;;;;0.50;0.23;;;;;;;25.85;43.91;100351.84;5072716;28;24299;-52
2023/07/13 07:40:17;;;;;;;0.50;0.30;;;;;;;25.88;43.69;100351.56;5073335;28;20466;-52
2023/07/13 07:42:46;;;;;;;0.50;0.30;;;;;;;25.65;43.93;100357.22;5072722;28;20545;-52
2023/07/13 07:45:13;;;;;;;0.50;0.30;;;;;;;25.57;44.36;100353.47;5064598;28;20541;-52
2023/07/13 07:47:40;;;;;;;0.50;0.20;;;;;;;25.49;43.75;100351.44;5072464;28;20481;-52
2023/07/13 07:50:08;;;;;;;0.50;0.20;;;;;;;25.80;43.65;100351.44;5066493;28;20476;-52
2023/07/13 07:52:34;;;;;;;0.50;0.20;;;;;;;25.72;43.17;100351.25;5072425;28;21077;-52
2023/07/13 07:55:01;;;;;;;0.50;0.20;;;;;;;25.37;43.68;100355.28;5054891;28;20810;-52
2023/07/13 07:57:30;;;;;;;0.50;0.30;;;;;;;25.40;42.46;100357.72;5072231;28;21017;-52
2023/07/13 08:00:00;;;;;;;0.50;0.30;;;;;;;25.02;42.61;100364.69;5072608;28;20548;-52
2023/07/13 08:02:29;;;;;;;0.50;0.30;;;;;;;25.64;42.96;100363.69;5072533;28;20540;-52
2023/07/13 08:04:58;;;;;;;0.50;0.30;;;;;;;25.18;43.39;100357.88;5072558;28;20915;-52
2023/07/13 08:07:30;;;;;;;0.50;0.30;;;;;;;25.53;43.49;100362.91;5072286;28;20938;-52
2023/07/13 08:09:57;;;;;;;0.50;0.20;;;;;;;25.29;43.23;100357.81;5054627;28;20465;-52
2023/07/13 08:12:23;;;;;;;0.50;0.20;;;;;;;25.33;43.35;100349.22;5072338;28;20826;-52
2023/07/13 08:14:53;;;;;;;0.50;0.30;;;;;;;25.62;43.30;100349.31;5072110;28;20485;-52
2023/07/13 08:17:20;;;;;;;0.50;0.30;;;;;;;25.94;42.11;100341.00;5072386;28;20911;-52
2023/07/13 08:19:47;;;;;;;0.50;0.30;;;;;;;25.62;42.93;100360.22;5071910;28;20465;-52
2023/07/13 08:22:13;;;;;;;0.50;0.20;;;;;;;25.57;43.23;100359.78;5072209;28;20966;-52
2023/07/13 08:24:40;;;;;;;0.50;0.27;;;;;;;26.22;41.75;100352.91;5072029;28;20487;-52
2023/07/13 08:27:06;;;;;;;0.50;0.30;;;;;;;26.19;41.67;100353.22;5072177;28;20481;-52
2023/07/13 08:29:33;;;;;;;0.50;0.27;;;;;;;25.94;42.36;100349.16;5072446;28;20527;-52
2023/07/13 08:31:59;;;;;;;0.50;0.27;;;;;;;25.78;42.83;100357.00;5072189;28;20528;-52
2023/07/13 08:34:26;;;;;;;0.50;0.30;;;;;;;26.26;42.72;100346.16;5072293;28;20465;-52
2023/07/13 08:36:55;;;;;;;0.50;0.23;;;;;;;25.80;42.67;100355.00;5072190;28;20945;-52
2023/07/13 08:39:22;;;;;;;0.50;0.30;;;;;;;26.06;41.80;100346.31;5071795;28;20552;-52
2023/07/13 08:41:56;;;;;;;0.50;0.30;;;;;;;26.18;41.48;100359.66;5071878;28;20540;-52
2023/07/13 08:44:57;;;;;;;0.50;0.30;;;;;;;26.22;40.47;100339.28;5072243;28;20463;-52
2023/07/13 08:47:24;;;;;;;0.50;0.23;;;;;;;26.36;40.03;100337.19;5067773;28;20516;-52
2023/07/13 08:49:52;;;;;;;0.50;0.20;;;;;;;26.21;39.65;100342.16;5071734;28;21032;-52
2023/07/13 08:52:28;;;;;;;0.50;0.30;;;;;;;26.41;39.90;100356.69;5071858;28;20522;-52
2023/07/13 08:54:57;;;;;;;0.50;0.20;;;;;;;26.64;39.87;100349.06;5071805;28;20811;-52
2023/07/13 08:57:33;;;;;;;0.50;0.20;;;;;;;27.18;37.85;100350.25;5072039;28;20481;-52
2023/07/13 08:59:59;;;;;;;0.50;0.20;;;;;;;27.15;37.47;100344.09;5072104;28;20530;-52
2023/07/13 09:02:54;;;;;;;0.50;0.27;;;;;;;26.32;37.14;100346.63;5071825;28;20462;-52
2023/07/13 09:05:35;;;;;;;0.50;0.30;;;;;;;26.44;37.90;100348.19;5067211;28;20436;-52
2023/07/13 09:08:08;;;;;;;0.50;0.30;;;;;;;27.20;37.33;100345.50;5064539;28;20535;-52
2023/07/13 09:10:43;;;;;;;0.50;0.30;;;;;;;27.63;36.50;100345.72;5071565;28;20560;-52
2023/07/13 09:13:10;;;;;;;0.50;0.27;;;;;;;27.75;36.17;100346.41;5071678;28;20550;-52
2023/07/13 09:15:43;;;;;;;0.50;0.30;;;;;;;27.27;35.99;100346.63;5071714;28;20465;-52
2023/07/13 09:18:16;;;;;;;0.50;0.30;;;;;;;27.45;36.63;100339.38;5071739;28;20568;-52
2023/07/13 09:20:54;;;;;;;0.50;0.30;;;;;;;27.01;36.69;100351.91;5071324;28;20454;-52
2023/07/13 09:23:23;;;;;;;0.50;0.30;;;;;;;27.17;37.00;100352.13;5071571;28;21005;-52
2023/07/13 09:25:57;;;;;;;0.50;0.20;;;;;;;27.39;37.09;100346.28;5070863;28;20520;-52
2023/07/13 09:28:26;;;;;;;0.50;0.30;;;;;;;26.98;37.30;100347.53;5071369;28;20516;-52
2023/07/13 09:31:05;;;;;;;0.50;0.30;;;;;;;26.94;37.44;100342.53;5071276;28;20444;-52
2023/07/13 09:33:34;;;;;;;0.50;0.30;;;;;;;26.83;37.15;100344.41;5071074;28;20432;-52
2023/07/13 09:36:01;;;;;;;0.50;0.30;;;;;;;26.61;37.51;100338.44;5071304;28;20527;-52
2023/07/13 09:38:30;;;;;;;0.50;0.30;;;;;;;26.50;37.88;100339.47;5071186;28;20938;-52
2023/07/13 09:41:21;;;;;;;0.50;0.20;;;;;;;27.02;36.85;100342.69;5071632;28;20942;-52
2023/07/13 09:44:10;;;;;;;0.50;0.30;;;;;;;26.69;36.72;100357.66;5070642;28;20536;-52
2023/07/13 09:46:39;;;;;;;0.50;0.30;;;;;;;26.69;36.83;100346.75;5053518;28;20439;-52
2023/07/13 09:49:09;;;;;;;0.50;0.30;;;;;;;27.30;36.29;100349.06;5071799;28;20476;-52
2023/07/13 09:51:46;;;;;;;0.50;0.30;;;;;;;26.98;37.52;100353.00;5072070;28;20539;-52
2023/07/13 09:54:20;;;;;;;0.50;0.30;;;;;;;26.81;36.66;100340.97;5075090;28;20465;-52
2023/07/13 09:56:46;;;;;;;0.50;0.30;;;;;;;26.96;36.66;100343.25;5073502;28;20905;-52
2023/07/13 09:59:20;;;;;;;0.50;0.30;;;;;;;27.03;36.82;100345.28;5074890;28;20894;-52
2023/07/13 10:01:48;;;;;;;0.50;0.30;;;;;;;27.28;36.06;100345.63;5074699;28;20963;-52
2023/07/13 10:04:21;;;;;;;0.50;0.20;;;;;;;27.15;36.54;100337.78;5074764;28;20823;-52
2023/07/13 10:06:47;;;;;;;0.50;0.30;;;;;;;27.58;36.15;100341.75;5074781;28;20548;-52
2023/07/13 10:09:18;;;;;;;0.50;0.30;;;;;;;27.09;35.82;100346.53;5074637;28;20519;-50
2023/07/13 10:11:45;;;;;;;0.50;0.20;;;;;;;27.71;35.07;100345.03;5072442;28;21053;-51
2023/07/13 10:14:18;;;;;;;0.50;0.27;;;;;;;27.69;35.18;100339.72;5072014;28;20860;-51
2023/07/13 10:16:46;;;;;;;0.50;0.30;;;;;;;28.13;34.81;100349.91;5074673;28;20557;-50
2023/07/13 10:19:21;;;;;;;0.50;0.30;;;;;;;27.70;34.15;100332.38;5074663;28;20465;-51
2023/07/13 10:21:54;;;;;;;0.50;0.20;;;;;;;27.73;34.85;100323.88;5074311;28;20440;-50
2023/07/13 10:24:24;;;;;;;0.50;0.27;;;;;;;27.51;34.37;100344.22;5069891;28;20548;-50
2023/07/13 10:26:57;;;;;;;0.50;0.30;;;;;;;27.48;34.95;100330.88;5074043;28;21041;-50
2023/07/13 10:29:28;;;;;;;0.50;0.30;;;;;;;28.08;34.32;100331.22;5074409;28;20951;-51
2023/07/13 10:31:57;;;;;;;0.50;0.30;;;;;;;28.54;33.60;100337.50;5074345;28;20547;-50
2023/07/13 10:34:24;;;;;;;0.50;0.30;;;;;;;27.78;34.66;100332.44;5069321;28;20556;-50
2023/07/13 10:36:51;;;;;;;0.50;0.30;;;;;;;27.82;34.83;100333.84;5074148;28;20910;-50
2023/07/13 10:39:26;;;;;;;0.50;0.20;;;;;;;27.15;35.78;100341.38;5074323;28;20500;-50
2023/07/13 10:42:01;;;;;;;0.50;0.20;;;;;;;26.91;36.40;100334.66;5074309;28;20457;-51
2023/07/13 10:44:32;;;;;;;0.50;0.20;;;;;;;27.51;35.43;100338.75;5074272;28;20497;-52
2023/07/13 10:47:03;;;;;;;0.50;0.30;;;;;;;27.97;35.27;100329.59;5066328;28;20518;-52
2023/07/13 10:49:32;;;;;;;0.50;0.30;;;;;;;28.13;34.20;100337.09;5073741;28;20540;-52
2023/07/13 10:51:59;;;;;;;0.50;0.30;;;;;;;27.92;34.57;100334.66;5074464;28;20584;-50
2023/07/13 10:54:34;;;;;;;0.50;0.30;;;;;;;27.87;35.17;100337.00;5074111;28;20497;-50
2023/07/13 10:57:20;;;;;;;0.50;0.30;;;;;;;27.80;34.45;100337.75;5066758;28;20513;-51
2023/07/13 11:00:04;;;;;;;0.50;0.23;;;;;;;27.80;34.13;100333.16;5073801;28;20468;-50
2023/07/13 11:02:31;;;;;;;0.50;0.30;;;;;;;27.65;34.99;100330.06;5073411;28;20868;-50
2023/07/13 11:04:57;;;;;;;0.50;0.30;;;;;;;27.40;34.86;100338.94;5073821;28;20474;-51
2023/07/13 11:07:27;;;;;;;11.10;4.33;;;;;;;26.96;35.44;100338.66;5073638;28;20486;-50
2023/07/13 11:09:59;;;;;;;0.50;0.30;;;;;;;27.18;35.50;100336.63;5073522;28;20489;-50
2023/07/13 11:12:47;;;;;;;0.50;0.30;;;;;;;26.96;34.79;100341.38;5068404;28;20498;-51
2023/07/13 11:15:14;;;;;;;0.50;0.23;;;;;;;27.07;34.64;100334.91;5067653;28;20542;-50
2023/07/13 11:17:58;;;;;;;0.50;0.23;;;;;;;26.83;35.26;100335.38;5068605;28;20486;-50
2023/07/13 11:20:34;;;;;;;0.50;0.20;;;;;;;27.22;35.47;100343.47;5073678;28;20457;-50
2023/07/13 11:23:13;;;;;;;0.50;0.30;;;;;;;27.24;36.08;100336.00;5073632;28;20461;-50
2023/07/13 11:25:39;;;;;;;0.50;0.30;;;;;;;27.19;36.09;100333.72;5065126;28;20497;-50
2023/07/13 11:28:12;;;;;;;0.50;0.30;;;;;;;27.77;35.82;100321.69;5073037;28;20493;-49
2023/07/13 11:30:43;;;;;;;0.50;0.30;;;;;;;27.74;35.86;100328.31;5073057;28;20556;-49